createdAt,value
2018-02-27T00:00:17.697Z,99.90
2018-02-27T00:02:45.973Z,99.90
2018-02-27T00:05:14.265Z,99.90
2018-02-27T00:07:42.525Z,99.90
2018-02-27T00:10:10.031Z,99.90
2018-02-27T00:12:37.560Z,99.90
2018-02-27T00:15:05.841Z,99.90
2018-02-27T00:17:33.364Z,99.90
2018-02-27T00:20:00.873Z,99.90
2018-02-27T00:22:28.404Z,99.90
2018-02-27T00:24:56.665Z,99.90
2018-02-27T00:27:24.171Z,99.90
2018-02-27T00:29:51.696Z,99.90
2018-02-27T00:32:19.972Z,99.90
2018-02-27T00:34:47.493Z,99.90
2018-02-27T00:37:15.184Z,99.90
2018-02-27T00:39:42.762Z,99.90
2018-02-27T00:42:11.029Z,99.90
2018-02-27T00:44:38.537Z,99.90
2018-02-27T00:47:06.068Z,99.90
2018-02-27T00:49:34.332Z,99.90
2018-02-27T00:52:01.880Z,99.90
2018-02-27T00:54:29.401Z,99.90
2018-02-27T00:56:56.936Z,99.90
2018-02-27T00:59:24.478Z,99.90
2018-02-27T01:01:52.014Z,99.90
2018-02-27T01:04:19.520Z,99.90
2018-02-27T01:06:47.043Z,99.90
2018-02-27T01:09:14.591Z,99.90
2018-02-27T01:11:42.113Z,99.90
2018-02-27T01:14:09.685Z,99.90
2018-02-27T01:16:37.218Z,99.90
2018-02-27T01:19:04.769Z,99.90
2018-02-27T01:21:33.039Z,99.90
2018-02-27T01:24:01.328Z,99.90
2018-02-27T01:26:28.870Z,99.90
2018-02-27T01:28:57.137Z,99.90
2018-02-27T01:31:24.663Z,99.90
2018-02-27T01:33:52.176Z,99.90
2018-02-27T01:36:20.474Z,99.90
2018-02-27T01:38:48.150Z,99.90
2018-02-27T01:41:15.678Z,99.90
2018-02-27T01:43:43.964Z,99.90
2018-02-27T01:46:11.487Z,99.90
2018-02-27T01:48:39.025Z,99.90
2018-02-27T01:51:14.362Z,99.90
2018-02-27T01:53:41.909Z,99.90
2018-02-27T01:56:09.420Z,99.90
2018-02-27T01:58:36.945Z,99.90
2018-02-27T02:01:04.474Z,99.90
2018-02-27T02:03:31.992Z,99.90
2018-02-27T02:05:59.538Z,99.90
2018-02-27T02:08:27.051Z,99.90
2018-02-27T02:10:54.585Z,99.90
2018-02-27T02:13:22.861Z,99.90
2018-02-27T02:15:51.166Z,99.90
2018-02-27T02:18:18.699Z,99.90
2018-02-27T02:20:46.211Z,99.90
2018-02-27T02:23:15.321Z,99.90
2018-02-27T02:25:42.839Z,99.90
2018-02-27T02:28:10.378Z,99.90
2018-02-27T02:30:38.654Z,99.90
2018-02-27T02:33:06.983Z,99.90
2018-02-27T02:35:34.637Z,99.90
2018-02-27T02:38:02.213Z,99.90
2018-02-27T02:40:29.716Z,99.90
2018-02-27T02:42:57.245Z,99.90
2018-02-27T02:45:24.781Z,99.90
2018-02-27T02:47:52.293Z,99.90
2018-02-27T02:50:20.598Z,99.90
2018-02-27T02:52:48.100Z,99.90
2018-02-27T02:55:16.408Z,99.90
2018-02-27T02:57:43.932Z,99.90
2018-02-27T03:00:11.450Z,99.90
2018-02-27T03:02:38.985Z,99.90
2018-02-27T03:05:06.499Z,99.90
2018-02-27T03:07:34.068Z,99.90
2018-02-27T03:10:01.586Z,99.90
2018-02-27T03:12:30.165Z,99.90
2018-02-27T03:14:59.142Z,99.90
2018-02-27T03:17:27.416Z,99.90
2018-02-27T03:19:55.005Z,99.90
2018-02-27T03:22:23.276Z,99.90
2018-02-27T03:24:51.578Z,99.90
2018-02-27T03:27:19.098Z,99.90
2018-02-27T03:29:46.633Z,99.90
2018-02-27T03:32:14.145Z,99.90
2018-02-27T03:34:41.693Z,99.90
2018-02-27T03:37:09.993Z,99.90
2018-02-27T03:39:37.520Z,99.90
2018-02-27T03:42:05.817Z,99.90
2018-02-27T03:44:34.084Z,99.90
2018-02-27T03:47:02.376Z,99.90
2018-02-27T03:49:29.911Z,99.90
2018-02-27T03:51:58.269Z,99.90
2018-02-27T03:54:27.416Z,99.90
2018-02-27T03:56:54.936Z,99.90
2018-02-27T03:59:22.480Z,99.90
2018-02-27T04:01:50.029Z,99.90
2018-02-27T04:04:17.553Z,99.90
2018-02-27T04:06:45.979Z,99.90
2018-02-27T04:09:13.512Z,99.90
2018-02-27T04:11:41.008Z,99.90
2018-02-27T04:14:08.541Z,99.90
2018-02-27T04:16:36.052Z,99.90
2018-02-27T04:19:04.965Z,99.90
2018-02-27T04:21:32.479Z,99.90
2018-02-27T04:23:59.980Z,99.90
2018-02-27T04:26:27.495Z,99.90
2018-02-27T04:28:54.993Z,99.90
2018-02-27T04:31:22.522Z,99.90
2018-02-27T04:33:50.028Z,99.90
2018-02-27T04:36:17.561Z,99.90
2018-02-27T04:38:45.841Z,99.90
2018-02-27T04:41:14.117Z,99.90
2018-02-27T04:43:42.412Z,99.90
2018-02-27T04:46:09.915Z,99.90
2018-02-27T04:48:37.445Z,99.90
2018-02-27T04:51:04.964Z,99.90
2018-02-27T04:53:32.626Z,99.90
2018-02-27T04:56:00.946Z,99.90
2018-02-27T04:58:28.470Z,99.90
2018-02-27T05:00:56.765Z,99.90
2018-02-27T05:03:25.033Z,99.90
2018-02-27T05:05:53.677Z,99.90
2018-02-27T05:08:21.192Z,99.90
2018-02-27T05:10:48.731Z,99.90
2018-02-27T05:13:16.237Z,99.90
2018-02-27T05:15:43.760Z,99.90
2018-02-27T05:18:12.057Z,99.90
2018-02-27T05:20:39.569Z,99.90
2018-02-27T05:23:07.131Z,99.90
2018-02-27T05:25:34.672Z,99.90
2018-02-27T05:28:02.235Z,99.90
2018-02-27T05:30:29.762Z,99.90
2018-02-27T05:32:57.298Z,99.90
2018-02-27T05:35:25.597Z,99.90
2018-02-27T05:37:53.114Z,99.90
2018-02-27T05:40:20.757Z,99.90
2018-02-27T05:42:48.269Z,99.90
2018-02-27T05:45:15.793Z,99.90
2018-02-27T05:47:43.301Z,99.90
2018-02-27T05:50:10.828Z,99.90
2018-02-27T05:52:39.124Z,99.90
2018-02-27T05:55:06.636Z,99.90
2018-02-27T05:57:34.163Z,99.90
2018-02-27T06:00:01.656Z,99.90
2018-02-27T06:02:29.196Z,99.90
2018-02-27T06:04:56.763Z,99.90
2018-02-27T06:07:24.231Z,99.90
2018-02-27T06:09:51.758Z,99.90
2018-02-27T06:12:19.264Z,99.90
2018-02-27T06:14:46.793Z,99.90
2018-02-27T06:17:14.305Z,99.90
2018-02-27T06:19:41.829Z,99.90
2018-02-27T06:22:09.359Z,99.90
2018-02-27T06:24:36.864Z,99.90
2018-02-27T06:27:04.402Z,99.90
2018-02-27T06:29:32.939Z,99.90
2018-02-27T06:32:00.471Z,99.90
2018-02-27T06:34:28.009Z,99.90
2018-02-27T06:36:55.541Z,99.90
2018-02-27T06:39:23.076Z,99.90
2018-02-27T06:41:51.368Z,99.90
2018-02-27T06:44:18.892Z,99.90
2018-02-27T06:46:46.470Z,99.90
2018-02-27T06:49:14.774Z,99.90
2018-02-27T06:51:42.285Z,99.90
2018-02-27T06:54:09.797Z,99.90
2018-02-27T06:56:37.331Z,99.90
2018-02-27T06:59:05.604Z,99.90
2018-02-27T07:01:33.907Z,99.90
2018-02-27T07:04:01.421Z,99.90
2018-02-27T07:06:28.969Z,99.90
2018-02-27T07:08:56.480Z,99.90
2018-02-27T07:11:23.986Z,99.90
2018-02-27T07:13:51.529Z,99.90
2018-02-27T07:16:19.060Z,99.90
2018-02-27T07:18:46.589Z,99.90
2018-02-27T07:21:14.881Z,99.90
2018-02-27T07:23:43.185Z,99.90
2018-02-27T07:26:10.701Z,99.90
2018-02-27T07:28:38.987Z,99.90
2018-02-27T07:31:07.297Z,99.90
2018-02-27T07:33:34.897Z,99.90
2018-02-27T07:36:02.437Z,99.90
2018-02-27T07:38:29.951Z,99.90
2018-02-27T07:40:57.498Z,99.90
2018-02-27T07:43:25.785Z,99.90
2018-02-27T07:45:53.489Z,99.90
2018-02-27T07:48:21.028Z,99.90
2018-02-27T07:50:48.553Z,99.90
2018-02-27T07:53:16.086Z,99.90
2018-02-27T07:55:43.599Z,99.90
2018-02-27T07:58:11.137Z,99.90
2018-02-27T08:00:38.657Z,99.90
2018-02-27T08:03:06.184Z,99.90
2018-02-27T08:05:33.697Z,99.90
2018-02-27T08:08:01.218Z,99.90
2018-02-27T08:10:28.753Z,99.90
2018-02-27T08:12:57.032Z,99.90
2018-02-27T08:15:25.322Z,99.90
2018-02-27T08:17:52.834Z,99.90
2018-02-27T08:20:20.358Z,99.90
2018-02-27T08:22:47.894Z,99.90
2018-02-27T08:25:15.403Z,99.90
2018-02-27T08:27:42.928Z,99.90
2018-02-27T08:30:10.445Z,99.90
2018-02-27T08:32:38.196Z,99.90
2018-02-27T08:35:06.620Z,99.90
2018-02-27T08:37:34.181Z,99.90
2018-02-27T08:40:01.713Z,99.90
2018-02-27T08:42:29.269Z,99.90
2018-02-27T08:44:56.796Z,99.90
2018-02-27T08:47:24.312Z,99.90
2018-02-27T08:49:52.632Z,99.90
2018-02-27T08:52:20.173Z,99.90
2018-02-27T08:54:47.699Z,99.90
2018-02-27T08:57:15.979Z,99.90
2018-02-27T08:59:44.264Z,99.90
2018-02-27T09:02:12.539Z,99.90
2018-02-27T09:04:40.812Z,99.90
2018-02-27T09:07:09.112Z,99.90
2018-02-27T09:09:36.632Z,99.90
2018-02-27T09:12:04.164Z,99.90
2018-02-27T09:14:31.695Z,99.90
2018-02-27T09:16:59.260Z,99.90
2018-02-27T09:19:26.776Z,99.90
2018-02-27T09:21:54.297Z,99.90
2018-02-27T09:24:21.918Z,99.90
2018-02-27T09:26:50.304Z,99.90
2018-02-27T09:29:19.606Z,99.90
2018-02-27T09:31:47.877Z,99.90
2018-02-27T09:34:15.413Z,99.90
2018-02-27T09:36:43.922Z,99.90
2018-02-27T09:39:12.206Z,99.90
2018-02-27T09:41:39.754Z,99.90
2018-02-27T09:44:08.026Z,99.90
2018-02-27T09:46:36.056Z,99.90
2018-02-27T09:49:03.587Z,99.90
2018-02-27T09:51:31.996Z,99.90
2018-02-27T09:53:59.518Z,99.90
2018-02-27T09:56:27.067Z,99.90
2018-02-27T09:58:55.357Z,99.90
2018-02-27T10:01:22.880Z,99.90
2018-02-27T10:03:50.417Z,99.90
2018-02-27T10:06:17.970Z,99.90
2018-02-27T10:08:46.418Z,99.90
2018-02-27T10:11:13.939Z,99.90
2018-02-27T10:13:41.535Z,99.90
2018-02-27T10:16:09.066Z,99.90
2018-02-27T10:18:37.380Z,99.90
2018-02-27T10:21:04.897Z,99.90
2018-02-27T10:23:32.425Z,99.90
2018-02-27T10:25:59.956Z,99.90
2018-02-27T10:28:27.486Z,99.90
2018-02-27T10:30:55.777Z,99.90
2018-02-27T10:33:23.317Z,99.90
2018-02-27T10:35:52.390Z,99.90
2018-02-27T10:38:19.892Z,99.90
2018-02-27T10:40:48.165Z,99.90
2018-02-27T10:43:16.468Z,99.90
2018-02-27T10:45:43.980Z,99.90
2018-02-27T10:48:11.517Z,99.90
2018-02-27T10:50:39.032Z,99.90
2018-02-27T10:53:07.323Z,98.60
2018-02-27T10:55:34.833Z,98.50
2018-02-27T10:58:02.399Z,99.40
2018-02-27T11:00:35.517Z,99.90
2018-02-27T11:03:03.073Z,99.90
2018-02-27T11:05:31.352Z,99.90
2018-02-27T11:07:59.629Z,99.90
2018-02-27T11:10:27.930Z,99.90
2018-02-27T11:12:55.465Z,99.90
2018-02-27T11:15:23.747Z,99.90
2018-02-27T11:17:52.024Z,99.90
2018-02-27T11:20:20.321Z,99.90
2018-02-27T11:22:47.834Z,99.90
2018-02-27T11:25:15.354Z,99.90
2018-02-27T11:27:42.900Z,99.40
2018-02-27T11:30:10.415Z,98.10
2018-02-27T11:32:37.945Z,98.30
2018-02-27T11:35:05.460Z,99.70
2018-02-27T11:37:33.006Z,96.30
2018-02-27T11:40:00.517Z,99.90
2018-02-27T11:42:28.029Z,97.30
2018-02-27T11:44:56.322Z,96.10
2018-02-27T11:47:23.842Z,95.80
2018-02-27T11:49:51.365Z,93.90
2018-02-27T11:52:19.460Z,94.10
2018-02-27T11:54:46.995Z,95.50
2018-02-27T11:57:14.508Z,95.50
2018-02-27T11:59:42.022Z,95.30
2018-02-27T12:02:09.552Z,95.30
2018-02-27T12:04:37.857Z,93.90
2018-02-27T12:07:05.410Z,93.70
2018-02-27T12:09:32.928Z,94.70
2018-02-27T12:12:00.462Z,94.00
2018-02-27T12:14:27.963Z,94.30
2018-02-27T12:16:56.246Z,92.10
2018-02-27T12:19:24.533Z,94.50
2018-02-27T12:21:52.193Z,94.40
2018-02-27T12:24:19.725Z,93.90
2018-02-27T12:26:47.249Z,95.70
2018-02-27T12:29:14.887Z,97.70
2018-02-27T12:31:42.392Z,97.60
2018-02-27T12:34:09.903Z,94.00
2018-02-27T12:36:38.370Z,94.80
2018-02-27T12:39:06.670Z,92.30
2018-02-27T12:41:34.942Z,94.20
2018-02-27T12:44:02.471Z,94.10
2018-02-27T12:46:30.750Z,93.40
2018-02-27T12:48:59.065Z,91.00
2018-02-27T12:51:26.580Z,90.90
2018-02-27T12:53:54.114Z,91.80
2018-02-27T12:56:21.645Z,87.00
2018-02-27T12:58:49.192Z,88.30
2018-02-27T13:01:16.715Z,92.20
2018-02-27T13:03:44.238Z,91.40
2018-02-27T13:06:11.777Z,85.60
2018-02-27T13:08:39.289Z,87.20
2018-02-27T13:11:06.824Z,89.10
2018-02-27T13:13:34.373Z,83.80
2018-02-27T13:16:01.901Z,79.60
2018-02-27T13:18:30.203Z,75.80
2018-02-27T13:20:57.710Z,75.70
2018-02-27T13:23:25.305Z,77.30
2018-02-27T13:25:52.850Z,83.10
2018-02-27T13:28:21.161Z,79.80
2018-02-27T13:30:48.694Z,80.00
2018-02-27T13:33:17.016Z,87.90
2018-02-27T13:35:44.545Z,87.80
2018-02-27T13:38:12.057Z,88.70
2018-02-27T13:40:39.590Z,82.20
2018-02-27T13:43:07.089Z,85.80
2018-02-27T13:45:34.655Z,89.40
2018-02-27T13:48:02.170Z,85.60
2018-02-27T13:50:29.712Z,78.40
2018-02-27T13:52:57.265Z,75.40
2018-02-27T13:55:24.801Z,80.60
2018-02-27T13:57:53.185Z,75.70
2018-02-27T14:00:21.477Z,75.10
2018-02-27T14:02:49.021Z,75.00
2018-02-27T14:05:16.546Z,76.20
2018-02-27T14:07:44.084Z,76.30
2018-02-27T14:10:11.599Z,75.60
2018-02-27T14:12:39.905Z,79.20
2018-02-27T14:15:07.409Z,79.10
2018-02-27T14:17:35.018Z,76.10
2018-02-27T14:20:02.558Z,72.50
2018-02-27T14:22:30.844Z,68.30
2018-02-27T14:24:59.145Z,65.70
2018-02-27T14:27:26.659Z,65.60
2018-02-27T14:29:55.189Z,65.60
2018-02-27T14:32:22.693Z,69.20
2018-02-27T14:34:50.221Z,66.70
2018-02-27T14:37:17.757Z,67.10
2018-02-27T14:39:45.320Z,68.60
2018-02-27T14:42:12.816Z,67.80
2018-02-27T14:44:40.338Z,71.00
2018-02-27T14:47:07.874Z,71.10
2018-02-27T14:49:36.171Z,69.30
2018-02-27T14:52:03.685Z,69.30
2018-02-27T14:54:31.235Z,69.60
2018-02-27T14:56:58.766Z,70.10
2018-02-27T14:59:26.307Z,72.10
2018-02-27T15:01:53.808Z,72.30
2018-02-27T15:04:21.353Z,73.90
2018-02-27T15:06:48.863Z,75.30
2018-02-27T15:09:17.156Z,75.20
2018-02-27T15:11:44.769Z,74.60
2018-02-27T15:14:13.665Z,77.20
2018-02-27T15:16:41.192Z,77.00
2018-02-27T15:19:08.723Z,75.30
2018-02-27T15:21:37.040Z,73.90
2018-02-27T15:24:04.572Z,73.80
2018-02-27T15:26:32.107Z,76.90
2018-02-27T15:28:59.650Z,75.20
2018-02-27T15:31:27.167Z,73.40
2018-02-27T15:33:54.701Z,75.30
2018-02-27T15:36:22.985Z,77.50
2018-02-27T15:38:53.244Z,77.50
2018-02-27T15:41:21.589Z,73.40
2018-02-27T15:43:49.103Z,73.40
2018-02-27T15:46:16.732Z,75.90
2018-02-27T15:48:45.174Z,76.40
2018-02-27T15:51:13.570Z,75.90
2018-02-27T15:53:41.856Z,78.60
2018-02-27T15:56:10.158Z,78.40
2018-02-27T15:58:37.674Z,78.40
2018-02-27T16:01:05.203Z,79.60
2018-02-27T16:03:32.826Z,81.10
2018-02-27T16:06:00.329Z,81.60
2018-02-27T16:08:28.860Z,77.20
2018-02-27T16:10:56.395Z,79.70
2018-02-27T16:13:23.924Z,76.10
2018-02-27T16:15:51.445Z,75.20
2018-02-27T16:18:19.002Z,76.40
2018-02-27T16:20:46.512Z,77.10
2018-02-27T16:23:14.044Z,80.50
2018-02-27T16:25:41.577Z,81.30
2018-02-27T16:28:09.104Z,80.50
2018-02-27T16:30:36.643Z,81.10
2018-02-27T16:33:04.178Z,80.50
2018-02-27T16:35:31.710Z,80.90
2018-02-27T16:37:59.241Z,79.60
2018-02-27T16:40:26.776Z,81.50
2018-02-27T16:42:54.286Z,85.60
2018-02-27T16:45:22.565Z,82.50
2018-02-27T16:47:50.865Z,84.20
2018-02-27T16:50:18.396Z,84.10
2018-02-27T16:52:46.720Z,84.70
2018-02-27T16:55:14.244Z,84.60
2018-02-27T16:57:42.556Z,88.20
2018-02-27T17:00:10.056Z,88.20
2018-02-27T17:02:38.384Z,86.90
2018-02-27T17:05:05.925Z,86.60
2018-02-27T17:07:34.209Z,82.50
2018-02-27T17:10:01.763Z,82.40
2018-02-27T17:12:30.046Z,84.30
2018-02-27T17:14:57.580Z,84.20
2018-02-27T17:17:25.896Z,81.70
2018-02-27T17:19:53.444Z,81.60
2018-02-27T17:22:20.961Z,84.10
2018-02-27T17:24:48.488Z,83.70
2018-02-27T17:27:16.039Z,82.20
2018-02-27T17:29:43.554Z,83.30
2018-02-27T17:32:11.089Z,82.40
2018-02-27T17:34:38.609Z,80.70
2018-02-27T17:37:06.141Z,82.40
2018-02-27T17:39:33.673Z,84.80
2018-02-27T17:42:01.203Z,89.40
2018-02-27T17:44:28.765Z,92.10
2018-02-27T17:46:56.287Z,93.50
2018-02-27T17:49:24.596Z,88.20
2018-02-27T17:51:52.113Z,88.10
2018-02-27T17:54:19.668Z,87.20
2018-02-27T17:56:47.212Z,91.20
2018-02-27T17:59:14.789Z,90.60
2018-02-27T18:01:42.368Z,88.10
2018-02-27T18:04:10.671Z,83.00
2018-02-27T18:06:39.158Z,82.90
2018-02-27T18:09:06.681Z,85.20
2018-02-27T18:11:34.993Z,90.70
2018-02-27T18:14:02.511Z,90.60
2018-02-27T18:16:30.031Z,90.50
2018-02-27T18:18:58.663Z,88.70
2018-02-27T18:21:26.940Z,88.00
2018-02-27T18:23:55.286Z,91.60
2018-02-27T18:26:22.809Z,91.60
2018-02-27T18:28:50.372Z,92.10
2018-02-27T18:31:17.905Z,90.30
2018-02-27T18:33:45.457Z,90.40
2018-02-27T18:36:13.014Z,90.00
2018-02-27T18:38:41.161Z,90.90
2018-02-27T18:41:08.725Z,89.10
2018-02-27T18:43:36.256Z,92.90
2018-02-27T18:46:03.829Z,93.60
2018-02-27T18:48:31.378Z,90.80
2018-02-27T18:50:58.914Z,91.80
2018-02-27T18:53:27.206Z,90.80
2018-02-27T18:55:54.734Z,90.80
2018-02-27T18:58:23.057Z,91.90
2018-02-27T19:00:50.789Z,91.90
2018-02-27T19:03:19.131Z,90.00
2018-02-27T19:05:46.665Z,90.00
2018-02-27T19:08:14.211Z,94.30
2018-02-27T19:10:41.760Z,93.30
2018-02-27T19:13:09.279Z,93.20
2018-02-27T19:15:36.838Z,92.70
2018-02-27T19:18:04.369Z,92.10
2018-02-27T19:20:31.935Z,91.00
2018-02-27T19:22:59.463Z,90.80
2018-02-27T19:25:27.021Z,90.30
2018-02-27T19:27:54.532Z,90.90
2018-02-27T19:30:22.057Z,90.90
2018-02-27T19:32:49.602Z,90.70
2018-02-27T19:35:17.149Z,91.10
2018-02-27T19:37:45.458Z,90.80
2018-02-27T19:40:12.985Z,90.80
2018-02-27T19:42:41.294Z,92.00
2018-02-27T19:45:08.813Z,91.90
2018-02-27T19:47:37.104Z,91.80
2018-02-27T19:50:05.410Z,92.40
2018-02-27T19:52:32.958Z,92.40
2018-02-27T19:55:00.505Z,92.50
2018-02-27T19:57:28.808Z,92.50
2018-02-27T19:59:56.369Z,92.80
2018-02-27T20:02:23.897Z,93.60
2018-02-27T20:04:52.194Z,94.90
2018-02-27T20:07:19.742Z,94.90
2018-02-27T20:09:48.016Z,92.30
2018-02-27T20:12:16.320Z,92.90
2018-02-27T20:14:44.614Z,92.80
2018-02-27T20:17:12.161Z,92.80
2018-02-27T20:19:39.686Z,92.00
2018-02-27T20:22:08.027Z,92.70
2018-02-27T20:24:35.549Z,92.70
2018-02-27T20:27:03.065Z,93.00
2018-02-27T20:29:30.615Z,92.30
2018-02-27T20:31:58.228Z,92.90
2018-02-27T20:34:25.781Z,92.20
2018-02-27T20:36:53.332Z,92.10
2018-02-27T20:39:23.482Z,93.00
2018-02-27T20:41:51.019Z,93.00
2018-02-27T20:44:19.401Z,94.80
2018-02-27T20:46:46.932Z,94.80
2018-02-27T20:49:14.469Z,94.70
2018-02-27T20:51:42.013Z,95.80
2018-02-27T20:54:09.533Z,95.40
2018-02-27T20:56:37.838Z,95.20
2018-02-27T20:59:05.438Z,95.20
2018-02-27T21:01:32.968Z,95.50
2018-02-27T21:04:00.486Z,96.10
2018-02-27T21:06:28.790Z,97.30
2018-02-27T21:08:57.083Z,96.20
2018-02-27T21:11:24.600Z,96.20
2018-02-27T21:13:52.181Z,97.00
2018-02-27T21:16:19.715Z,97.40
2018-02-27T21:18:48.108Z,98.60
2018-02-27T21:21:16.397Z,99.70
2018-02-27T21:23:43.934Z,99.60
2018-02-27T21:26:12.270Z,99.60
2018-02-27T21:28:39.835Z,99.50
2018-02-27T21:31:08.143Z,99.90
2018-02-27T21:33:35.684Z,99.90
2018-02-27T21:36:03.259Z,99.90
2018-02-27T21:38:30.799Z,99.90
2018-02-27T21:40:58.339Z,99.90
2018-02-27T21:43:25.861Z,99.90
2018-02-27T21:45:54.158Z,99.90
2018-02-27T21:48:21.725Z,99.90
2018-02-27T21:50:49.246Z,99.90
2018-02-27T21:53:16.792Z,99.90
2018-02-27T21:55:44.326Z,99.90
2018-02-27T21:58:11.865Z,99.90
2018-02-27T22:00:39.407Z,99.90
2018-02-27T22:03:07.697Z,99.90
2018-02-27T22:05:35.256Z,99.90
2018-02-27T22:08:02.801Z,99.90
2018-02-27T22:10:31.129Z,99.90
2018-02-27T22:12:58.642Z,99.90
2018-02-27T22:15:26.203Z,99.90
2018-02-27T22:17:53.749Z,99.90
2018-02-27T22:20:22.072Z,99.90
2018-02-27T22:22:49.608Z,99.90
2018-02-27T22:25:17.165Z,99.90
2018-02-27T22:27:44.708Z,99.90
2018-02-27T22:30:12.999Z,99.90
2018-02-27T22:32:41.347Z,99.90
2018-02-27T22:35:08.880Z,99.90
2018-02-27T22:37:36.458Z,99.90
2018-02-27T22:40:03.986Z,99.90
2018-02-27T22:42:32.269Z,99.90
2018-02-27T22:44:59.805Z,99.90
2018-02-27T22:47:27.325Z,99.90
2018-02-27T22:49:54.856Z,99.90
2018-02-27T22:52:22.371Z,99.90
2018-02-27T22:54:50.671Z,99.90
2018-02-27T22:57:18.178Z,99.90
2018-02-27T22:59:45.717Z,99.90
2018-02-27T23:02:13.270Z,99.90
2018-02-27T23:04:40.781Z,99.90
2018-02-27T23:07:09.087Z,99.90
2018-02-27T23:09:36.625Z,99.90
2018-02-27T23:12:04.177Z,99.90
2018-02-27T23:14:32.451Z,99.90
2018-02-27T23:16:59.967Z,99.90
2018-02-27T23:19:27.502Z,99.90
2018-02-27T23:21:55.013Z,99.90
2018-02-27T23:27:39.969Z,99.90
2018-02-27T23:30:09.051Z,99.90
2018-02-27T23:32:39.901Z,99.90
2018-02-27T23:35:30.848Z,99.90
2018-02-27T23:37:58.363Z,99.90
2018-02-27T23:40:25.893Z,99.90
2018-02-27T23:42:54.172Z,99.90
2018-02-27T23:45:22.478Z,99.90
2018-02-27T23:47:49.986Z,99.90
2018-02-27T23:50:17.498Z,99.90
2018-02-27T23:52:45.029Z,99.90
2018-02-27T23:55:13.310Z,99.90
2018-02-27T23:57:41.625Z,99.90
